createdAt,value
2019-01-20T00:01:31.740Z,57.30
2019-01-20T00:04:01.382Z,53.15
2019-01-20T00:06:30.429Z,46.10
2019-01-20T00:08:59.358Z,49.80
2019-01-20T00:11:28.383Z,48.60
2019-01-20T00:14:00.111Z,51.58
2019-01-20T00:16:29.039Z,39.20
2019-01-20T00:18:57.896Z,52.40
2019-01-20T00:21:26.822Z,44.42
2019-01-20T00:23:55.835Z,46.55
2019-01-20T00:26:24.811Z,44.03
2019-01-20T00:28:53.757Z,41.63
2019-01-20T00:31:22.909Z,41.95
2019-01-20T00:33:51.919Z,46.33
2019-01-20T00:36:20.892Z,49.75
2019-01-20T00:38:49.890Z,43.90
2019-01-20T00:41:23.956Z,44.15
2019-01-20T00:43:49.552Z,42.03
2019-01-20T00:46:18.545Z,47.33
2019-01-20T00:48:49.562Z,49.33
2019-01-20T00:51:18.646Z,41.30
2019-01-20T00:53:47.572Z,45.70
2019-01-20T00:56:16.495Z,46.02
2019-01-20T00:58:45.429Z,55.17
2019-01-20T01:01:14.442Z,46.40
2019-01-20T01:03:43.457Z,53.25
2019-01-20T01:06:12.458Z,51.02
2019-01-20T01:08:44.663Z,56.20
2019-01-20T01:11:13.513Z,55.67
2019-01-20T01:13:42.442Z,62.55
2019-01-20T01:16:11.438Z,52.17
2019-01-20T01:18:40.384Z,58.90
2019-01-20T01:21:10.475Z,51.60
2019-01-20T01:23:39.495Z,54.27
2019-01-20T01:26:08.486Z,55.88
2019-01-20T01:28:37.508Z,55.75
2019-01-20T01:31:06.552Z,59.70
2019-01-20T01:33:35.571Z,57.75
2019-01-20T01:36:04.546Z,58.90
2019-01-20T01:38:33.466Z,55.12
2019-01-20T01:41:02.495Z,50.80
2019-01-20T01:43:32.486Z,54.20
2019-01-20T01:46:01.553Z,59.35
2019-01-20T01:48:30.476Z,58.52
2019-01-20T01:50:59.476Z,52.78
2019-01-20T01:53:28.327Z,51.33
2019-01-20T01:55:57.403Z,54.40
2019-01-20T01:58:26.392Z,58.02
2019-01-20T02:00:55.345Z,50.95
2019-01-20T02:03:24.316Z,48.15
2019-01-20T02:05:53.253Z,49.45
2019-01-20T02:08:22.174Z,52.55
2019-01-20T02:10:51.176Z,52.80
2019-01-20T02:13:20.097Z,54.50
2019-01-20T02:15:49.105Z,52.67
2019-01-20T02:18:18.105Z,56.50
2019-01-20T02:20:47.112Z,53.00
2019-01-20T02:23:16.102Z,60.30
2019-01-20T02:25:45.113Z,56.30
2019-01-20T02:28:13.966Z,55.75
2019-01-20T02:30:42.976Z,54.63
2019-01-20T02:33:11.900Z,54.85
2019-01-20T02:35:40.943Z,64.62
2019-01-20T02:38:09.941Z,61.55
2019-01-20T02:40:38.946Z,59.58
2019-01-20T02:43:07.781Z,54.23
2019-01-20T02:45:36.717Z,59.93
2019-01-20T02:48:05.705Z,53.80
2019-01-20T02:50:34.674Z,58.42
2019-01-20T02:53:03.608Z,61.42
2019-01-20T02:55:32.610Z,55.63
2019-01-20T02:58:02.061Z,64.47
2019-01-20T03:00:31.227Z,66.67
2019-01-20T03:03:00.233Z,68.80
2019-01-20T03:05:29.312Z,62.58
2019-01-20T03:07:58.247Z,61.92
2019-01-20T03:10:27.173Z,55.88
2019-01-20T03:12:56.126Z,57.75
2019-01-20T03:15:25.110Z,60.92
2019-01-20T03:17:54.056Z,70.50
2019-01-20T03:20:24.838Z,68.55
2019-01-20T03:22:53.840Z,68.40
2019-01-20T03:25:22.853Z,70.78
2019-01-20T03:27:51.838Z,60.55
2019-01-20T03:30:22.786Z,63.08
2019-01-20T03:32:51.683Z,65.10
2019-01-20T03:35:25.381Z,61.83
2019-01-20T03:37:54.381Z,79.15
2019-01-20T03:40:23.583Z,64.37
2019-01-20T03:42:52.512Z,66.87
2019-01-20T03:45:21.609Z,66.97
2019-01-20T03:47:50.764Z,64.10
2019-01-20T03:50:19.752Z,69.07
2019-01-20T03:52:48.765Z,60.28
2019-01-20T03:55:18.270Z,63.15
2019-01-20T03:57:48.406Z,60.45
2019-01-20T04:00:22.370Z,69.03
2019-01-20T04:02:59.565Z,60.20
2019-01-20T04:05:28.692Z,63.40
2019-01-20T04:07:57.784Z,66.15
2019-01-20T04:10:26.697Z,75.60
2019-01-20T04:12:55.699Z,61.18
2019-01-20T04:15:24.622Z,68.02
2019-01-20T04:17:53.623Z,63.35
2019-01-20T04:20:22.698Z,64.25
2019-01-20T04:22:51.694Z,59.10
2019-01-20T04:25:20.920Z,60.20
2019-01-20T04:27:49.902Z,65.35
2019-01-20T04:30:20.445Z,62.10
2019-01-20T04:32:49.778Z,69.77
2019-01-20T04:35:18.820Z,64.95
2019-01-20T04:37:48.094Z,62.58
2019-01-20T04:40:22.031Z,67.35
2019-01-20T04:42:51.013Z,69.87
2019-01-20T04:45:20.010Z,65.67
2019-01-20T04:47:49.018Z,65.37
2019-01-20T04:50:20.122Z,57.10
2019-01-20T04:52:49.110Z,65.78
2019-01-20T04:55:18.284Z,61.60
2019-01-20T04:57:50.276Z,73.37
2019-01-20T05:00:21.126Z,69.72
2019-01-20T05:02:50.030Z,84.83
2019-01-20T05:05:19.457Z,59.13
2019-01-20T05:07:48.624Z,65.00
2019-01-20T05:10:17.638Z,70.15
2019-01-20T05:12:46.605Z,61.23
2019-01-20T05:15:23.382Z,65.37
2019-01-20T05:17:52.537Z,69.17
2019-01-20T05:20:21.787Z,63.35
2019-01-20T05:22:50.777Z,66.80
2019-01-20T05:25:19.688Z,65.62
2019-01-20T05:27:48.947Z,63.63
2019-01-20T05:30:25.834Z,68.57
2019-01-20T05:32:54.760Z,78.07
2019-01-20T05:35:23.941Z,63.02
2019-01-20T05:37:52.859Z,65.25
2019-01-20T05:40:21.907Z,66.35
2019-01-20T05:42:51.152Z,63.87
2019-01-20T05:45:22.144Z,71.17
2019-01-20T05:47:51.040Z,66.77
2019-01-20T05:50:20.779Z,64.90
2019-01-20T05:52:49.681Z,63.15
2019-01-20T05:55:18.653Z,65.15
2019-01-20T05:57:47.582Z,64.47
2019-01-20T06:00:41.816Z,60.83
2019-01-20T06:03:10.969Z,63.68
2019-01-20T06:05:39.873Z,54.95
2019-01-20T06:08:08.854Z,59.40
2019-01-20T06:10:37.677Z,56.20
2019-01-20T06:13:06.585Z,64.10
2019-01-20T06:15:35.498Z,60.25
2019-01-20T06:18:04.470Z,59.48
2019-01-20T06:20:33.354Z,59.95
2019-01-20T06:23:02.441Z,63.15
2019-01-20T06:25:31.350Z,55.28
2019-01-20T06:28:00.248Z,54.20
2019-01-20T06:30:31.589Z,62.17
2019-01-20T06:33:00.492Z,58.45
2019-01-20T06:35:29.500Z,58.87
2019-01-20T06:37:58.428Z,63.58
2019-01-20T06:40:27.345Z,62.70
2019-01-20T06:43:01.836Z,68.20
2019-01-20T06:45:27.020Z,63.40
2019-01-20T06:47:55.992Z,62.45
2019-01-20T06:50:24.993Z,63.90
2019-01-20T06:52:53.898Z,52.30
2019-01-20T06:55:22.881Z,56.80
2019-01-20T06:57:52.452Z,60.92
2019-01-20T07:00:24.553Z,66.87
2019-01-20T07:02:53.548Z,69.27
2019-01-20T07:05:22.516Z,66.30
2019-01-20T07:07:51.623Z,53.05
2019-01-20T07:10:22.721Z,57.27
2019-01-20T07:12:51.721Z,60.12
2019-01-20T07:15:22.864Z,56.68
2019-01-20T07:17:51.848Z,57.75
2019-01-20T07:20:20.860Z,59.00
2019-01-20T07:22:49.845Z,60.95
2019-01-20T07:25:18.933Z,60.28
2019-01-20T07:27:47.914Z,52.55
2019-01-20T07:30:21.757Z,55.65
2019-01-20T07:32:50.744Z,60.90
2019-01-20T07:35:19.735Z,53.83
2019-01-20T07:37:48.983Z,56.42
2019-01-20T07:40:22.613Z,55.90
2019-01-20T07:42:51.624Z,55.92
2019-01-20T07:45:20.533Z,49.80
2019-01-20T07:47:49.561Z,49.18
2019-01-20T07:50:23.461Z,56.18
2019-01-20T07:52:52.464Z,57.08
2019-01-20T07:55:21.458Z,54.65
2019-01-20T07:57:50.477Z,54.08
2019-01-20T08:00:21.396Z,53.38
2019-01-20T08:02:50.392Z,65.37
2019-01-20T08:05:19.699Z,54.40
2019-01-20T08:07:48.802Z,53.95
2019-01-20T08:10:26.121Z,56.77
2019-01-20T08:12:59.552Z,58.33
2019-01-20T08:15:28.564Z,58.75
2019-01-20T08:17:57.575Z,51.50
2019-01-20T08:20:30.849Z,59.98
2019-01-20T08:22:59.953Z,52.95
2019-01-20T08:25:28.981Z,55.50
2019-01-20T08:27:58.025Z,49.53
2019-01-20T08:30:28.656Z,49.00
2019-01-20T08:32:57.656Z,54.67
2019-01-20T08:35:26.659Z,58.65
2019-01-20T08:37:55.719Z,53.38
2019-01-20T08:40:29.783Z,52.65
2019-01-20T08:42:58.887Z,53.15
2019-01-20T08:45:55.037Z,57.23
2019-01-20T08:48:24.077Z,56.02
2019-01-20T08:50:53.109Z,49.18
2019-01-20T08:53:22.116Z,55.90
2019-01-20T08:55:51.163Z,59.55
2019-01-20T08:58:20.790Z,49.08
2019-01-20T09:00:49.810Z,46.05
2019-01-20T09:03:18.844Z,53.17
2019-01-20T09:05:48.897Z,55.05
2019-01-20T09:08:18.326Z,57.58
2019-01-20T09:10:48.007Z,61.73
2019-01-20T09:13:17.776Z,53.33
2019-01-20T09:15:52.964Z,58.50
2019-01-20T09:18:23.830Z,55.15
2019-01-20T09:20:52.853Z,50.17
2019-01-20T09:23:21.940Z,64.45
2019-01-20T09:25:50.891Z,54.60
2019-01-20T09:28:20.094Z,52.55
2019-01-20T09:30:49.090Z,53.48
2019-01-20T09:33:24.519Z,61.42
2019-01-20T09:35:48.777Z,53.20
2019-01-20T09:38:17.642Z,55.75
2019-01-20T09:40:46.482Z,58.08
2019-01-20T09:43:15.352Z,56.98
2019-01-20T09:45:44.837Z,56.90
2019-01-20T09:48:13.886Z,53.52
2019-01-20T09:50:42.801Z,55.48
2019-01-20T09:53:11.793Z,54.33
2019-01-20T09:55:40.817Z,51.28
2019-01-20T09:58:09.833Z,58.92
2019-01-20T10:00:38.838Z,57.23
2019-01-20T10:03:07.753Z,50.90
2019-01-20T10:05:36.753Z,56.13
2019-01-20T10:08:05.902Z,55.67
2019-01-20T10:10:34.851Z,47.62
2019-01-20T10:13:03.842Z,52.93
2019-01-20T10:15:32.886Z,62.17
2019-01-20T10:18:01.909Z,53.83
2019-01-20T10:20:31.804Z,54.15
2019-01-20T10:23:01.586Z,60.48
2019-01-20T10:25:30.629Z,63.15
2019-01-20T10:27:59.565Z,54.33
2019-01-20T10:30:33.339Z,58.40
2019-01-20T10:33:03.483Z,57.27
2019-01-20T10:35:45.959Z,59.70
2019-01-20T10:38:14.952Z,60.20
2019-01-20T10:40:43.887Z,65.70
2019-01-20T10:43:12.898Z,65.10
2019-01-20T10:45:41.854Z,56.63
2019-01-20T10:48:10.854Z,58.63
2019-01-20T10:50:39.982Z,59.98
2019-01-20T10:53:15.789Z,60.00
2019-01-20T10:55:44.890Z,58.85
2019-01-20T10:58:14.900Z,60.98
2019-01-20T11:00:43.950Z,71.05
2019-01-20T11:03:12.874Z,58.63
2019-01-20T11:05:41.998Z,60.63
2019-01-20T11:08:11.101Z,69.50
2019-01-20T11:10:40.324Z,61.70
2019-01-20T11:13:14.415Z,67.95
2019-01-20T11:15:43.516Z,61.58
2019-01-20T11:18:12.478Z,63.30
2019-01-20T11:20:41.401Z,54.63
2019-01-20T11:23:10.680Z,57.13
2019-01-20T11:25:43.715Z,55.23
2019-01-20T11:28:12.729Z,65.83
2019-01-20T11:30:41.828Z,55.58
2019-01-20T11:33:10.890Z,64.55
2019-01-20T11:35:39.926Z,60.63
2019-01-20T11:38:10.449Z,56.37
2019-01-20T11:40:43.258Z,66.37
2019-01-20T11:43:13.398Z,59.67
2019-01-20T11:45:42.506Z,63.70
2019-01-20T11:48:11.606Z,62.03
2019-01-20T11:50:40.605Z,68.17
2019-01-20T11:53:09.602Z,56.85
2019-01-20T11:55:38.605Z,58.83
2019-01-20T11:58:09.528Z,58.30
2019-01-20T12:00:38.661Z,52.60
2019-01-20T12:03:08.551Z,51.58
2019-01-20T12:05:39.740Z,62.70
2019-01-20T12:08:12.257Z,55.67
2019-01-20T12:10:41.457Z,57.93
2019-01-20T12:13:15.969Z,60.10
2019-01-20T12:15:44.885Z,53.75
2019-01-20T12:18:13.885Z,53.10
2019-01-20T12:20:44.412Z,58.48
2019-01-20T12:23:13.417Z,54.55
2019-01-20T12:25:42.341Z,51.90
2019-01-20T12:28:11.351Z,56.08
2019-01-20T12:30:40.470Z,56.08
2019-01-20T12:33:09.684Z,50.03
2019-01-20T12:35:40.759Z,48.90
2019-01-20T12:38:09.765Z,51.60
2019-01-20T12:40:41.371Z,58.38
2019-01-20T12:43:10.385Z,44.77
2019-01-20T12:45:39.453Z,51.68
2019-01-20T12:48:08.447Z,45.75
2019-01-20T12:50:37.471Z,54.00
2019-01-20T12:53:12.449Z,61.18
2019-01-20T12:55:41.482Z,54.70
2019-01-20T13:08:17.774Z,49.10
2019-01-20T13:10:48.826Z,41.75
2019-01-20T13:13:19.835Z,44.75
2019-01-20T13:15:48.844Z,47.88
2019-01-20T13:18:17.774Z,46.35
2019-01-20T13:20:50.166Z,46.70
2019-01-20T13:23:21.949Z,47.35
2019-01-20T13:25:50.954Z,42.00
2019-01-20T13:28:19.943Z,47.33
2019-01-20T13:30:49.078Z,49.00
2019-01-20T13:33:18.082Z,46.68
2019-01-20T13:35:48.093Z,44.88
2019-01-20T13:38:19.734Z,49.38
2019-01-20T13:41:02.461Z,48.60
2019-01-20T13:43:34.941Z,58.75
2019-01-20T13:46:04.057Z,52.53
2019-01-20T13:48:33.218Z,52.38
2019-01-20T13:51:02.159Z,50.52
2019-01-20T13:53:34.276Z,51.08
2019-01-20T13:56:03.276Z,53.73
2019-01-20T13:58:32.154Z,55.98
2019-01-20T14:01:01.069Z,57.90
2019-01-20T14:03:30.027Z,56.02
2019-01-20T14:06:00.890Z,57.08
2019-01-20T14:08:30.811Z,60.15
2019-01-20T14:10:59.856Z,56.13
2019-01-20T14:13:28.759Z,62.13
2019-01-20T14:15:57.684Z,52.15
2019-01-20T14:18:26.525Z,57.62
2019-01-20T14:20:55.442Z,58.40
2019-01-20T14:23:24.442Z,61.40
2019-01-20T14:25:53.435Z,55.88
2019-01-20T14:28:25.904Z,62.98
2019-01-20T14:30:54.889Z,58.52
2019-01-20T14:33:23.805Z,56.25
2019-01-20T14:35:52.811Z,66.62
2019-01-20T14:38:23.907Z,55.00
2019-01-20T14:41:05.341Z,69.80
2019-01-20T14:43:34.435Z,63.80
2019-01-20T14:46:03.441Z,54.35
2019-01-20T14:48:36.469Z,57.17
2019-01-20T14:51:05.456Z,47.70
2019-01-20T14:53:35.374Z,56.40
2019-01-20T14:56:04.691Z,51.33
2019-01-20T14:58:33.695Z,56.75
2019-01-20T15:01:08.523Z,60.20
2019-01-20T15:03:37.516Z,53.50
2019-01-20T15:06:06.502Z,57.15
2019-01-20T15:08:35.502Z,54.73
2019-01-20T15:11:04.498Z,53.70
2019-01-20T15:13:33.567Z,59.13
2019-01-20T15:16:02.583Z,51.02
2019-01-20T15:18:31.687Z,57.38
2019-01-20T15:21:00.696Z,54.20
2019-01-20T15:23:29.808Z,52.17
2019-01-20T15:25:58.908Z,54.50
2019-01-20T15:28:27.988Z,58.50
2019-01-20T15:31:07.948Z,49.40
2019-01-20T15:33:42.799Z,51.00
2019-01-20T15:36:11.879Z,56.80
2019-01-20T15:38:40.795Z,48.63
2019-01-20T15:41:12.843Z,58.13
2019-01-20T15:43:41.713Z,51.65
2019-01-20T15:46:10.752Z,47.38
2019-01-20T15:48:39.781Z,54.88
2019-01-20T15:51:08.721Z,54.80
2019-01-20T15:53:37.979Z,61.37
2019-01-20T15:56:07.005Z,55.67
2019-01-20T15:58:41.045Z,53.68
2019-01-20T16:01:09.905Z,56.65
2019-01-20T16:03:40.764Z,49.95
2019-01-20T16:06:09.791Z,59.85
2019-01-20T16:08:38.750Z,47.03
2019-01-20T16:11:07.765Z,67.20
2019-01-20T16:13:36.764Z,67.47
2019-01-20T16:16:05.748Z,59.42
2019-01-20T16:18:34.720Z,60.52
2019-01-20T16:21:03.714Z,60.73
2019-01-20T16:23:32.742Z,55.17
2019-01-20T16:26:01.630Z,60.10
2019-01-20T16:28:30.650Z,69.70
2019-01-20T16:30:59.633Z,68.83
2019-01-20T16:33:28.664Z,60.10
2019-01-20T16:35:58.732Z,60.92
2019-01-20T16:38:27.623Z,58.48
2019-01-20T16:40:56.643Z,56.92
2019-01-20T16:43:25.650Z,61.40
2019-01-20T16:45:54.708Z,54.85
2019-01-20T16:48:23.710Z,59.75
2019-01-20T16:50:52.725Z,63.92
2019-01-20T16:53:21.720Z,60.55
2019-01-20T16:55:50.645Z,69.85
2019-01-20T16:58:19.615Z,55.20
2019-01-20T17:00:48.699Z,52.60
2019-01-20T17:03:17.847Z,69.75
2019-01-20T17:05:46.866Z,61.65
2019-01-20T17:08:15.888Z,68.78
2019-01-20T17:10:45.389Z,65.92
2019-01-20T17:13:14.429Z,58.83
2019-01-20T17:15:45.117Z,54.18
2019-01-20T17:18:17.189Z,62.27
2019-01-20T17:20:46.277Z,66.57
2019-01-20T17:23:15.586Z,66.77
2019-01-20T17:25:44.593Z,71.33
2019-01-20T17:28:13.630Z,59.13
2019-01-20T17:30:42.790Z,62.45
2019-01-20T17:33:12.985Z,64.07
2019-01-20T17:35:42.036Z,84.95
2019-01-20T17:38:11.149Z,65.15
2019-01-20T17:40:40.077Z,55.55
2019-01-20T17:43:09.074Z,64.15
2019-01-20T17:45:47.561Z,65.95
2019-01-20T17:48:11.787Z,68.10
2019-01-20T17:50:41.998Z,169.80
2019-01-20T17:53:11.747Z,116.00
2019-01-20T17:55:41.839Z,88.55
2019-01-20T17:58:18.352Z,75.32
2019-01-20T18:00:51.742Z,62.08
2019-01-20T18:03:20.858Z,66.12
2019-01-20T18:05:51.895Z,74.22
2019-01-20T18:08:20.986Z,65.87
2019-01-20T18:10:50.078Z,63.68
2019-01-20T18:13:19.215Z,66.12
2019-01-20T18:15:54.393Z,70.70
2019-01-20T18:18:38.649Z,65.97
2019-01-20T18:21:16.902Z,69.92
2019-01-20T18:23:54.201Z,70.12
2019-01-20T18:26:32.298Z,72.65
2019-01-20T18:29:09.400Z,62.33
2019-01-20T18:31:39.443Z,72.35
2019-01-20T18:34:15.342Z,64.82
2019-01-20T18:36:44.430Z,68.70
2019-01-20T18:39:34.395Z,68.02
2019-01-20T18:42:03.420Z,66.55
2019-01-20T18:44:32.432Z,65.95
2019-01-20T18:47:07.413Z,69.90
2019-01-20T18:49:36.383Z,75.55
2019-01-20T18:52:05.437Z,73.95
2019-01-20T18:54:34.379Z,70.08
2019-01-20T18:57:03.330Z,73.42
2019-01-20T18:59:32.437Z,79.35
2019-01-20T19:02:01.357Z,69.17
2019-01-20T19:04:30.439Z,73.50
2019-01-20T19:06:59.381Z,80.17
2019-01-20T19:09:28.293Z,75.75
2019-01-20T19:11:57.222Z,85.22
2019-01-20T19:14:26.165Z,73.97
2019-01-20T19:16:55.103Z,79.00
2019-01-20T19:19:24.102Z,85.15
2019-01-20T19:21:53.127Z,88.85
2019-01-20T19:24:21.972Z,89.05
2019-01-20T19:26:51.942Z,78.10
2019-01-20T19:29:20.930Z,79.17
2019-01-20T19:31:50.010Z,71.33
2019-01-20T19:34:19.022Z,93.17
2019-01-20T19:36:47.965Z,78.17
2019-01-20T19:39:16.982Z,74.27
2019-01-20T19:41:46.931Z,83.95
2019-01-20T19:44:15.819Z,90.60
2019-01-20T19:46:44.918Z,85.87
2019-01-20T19:49:13.937Z,93.62
2019-01-20T19:51:42.966Z,88.55
2019-01-20T19:54:11.910Z,86.02
2019-01-20T19:56:40.910Z,81.72
2019-01-20T19:59:09.883Z,90.67
2019-01-20T20:01:38.754Z,84.77
2019-01-20T20:04:07.763Z,155.82
2019-01-20T20:06:36.762Z,145.60
2019-01-20T20:09:11.518Z,117.47
2019-01-20T20:11:43.550Z,119.33
2019-01-20T20:14:14.584Z,81.10
2019-01-20T20:16:49.393Z,76.85
2019-01-20T20:19:20.494Z,91.30
2019-01-20T20:21:49.546Z,92.80
2019-01-20T20:24:25.118Z,102.40
2019-01-20T20:26:49.418Z,130.60
2019-01-20T20:29:18.556Z,112.45
2019-01-20T20:31:47.603Z,130.67
2019-01-20T20:34:17.690Z,96.92
2019-01-20T20:36:46.771Z,116.60
2019-01-20T20:39:16.736Z,82.90
2019-01-20T20:41:45.754Z,79.95
2019-01-20T20:44:14.647Z,85.83
2019-01-20T20:46:45.510Z,100.70
2019-01-20T20:49:14.582Z,88.20
2019-01-20T20:51:43.577Z,89.10
2019-01-20T20:54:18.601Z,99.25
2019-01-20T20:56:47.537Z,79.90
2019-01-20T20:59:16.571Z,80.92
2019-01-20T21:01:50.547Z,80.00
2019-01-20T21:04:21.593Z,89.25
2019-01-20T21:06:50.591Z,99.00
2019-01-20T21:09:19.470Z,84.67
2019-01-20T21:11:48.478Z,92.25
2019-01-20T21:14:17.488Z,80.83
2019-01-20T21:16:48.370Z,70.67
2019-01-20T21:19:17.323Z,78.50
2019-01-20T21:21:46.323Z,79.47
2019-01-20T21:24:15.358Z,80.65
2019-01-20T21:26:44.617Z,70.95
2019-01-20T21:29:14.314Z,69.60
2019-01-20T21:31:43.225Z,84.20
2019-01-20T21:34:12.900Z,86.32
2019-01-20T21:36:41.930Z,90.53
2019-01-20T21:39:10.939Z,84.62
2019-01-20T21:41:39.997Z,103.42
2019-01-20T21:44:08.998Z,82.92
2019-01-20T21:46:37.945Z,95.65
2019-01-20T21:49:06.942Z,92.92
2019-01-20T21:51:35.995Z,154.07
2019-01-20T21:54:05.110Z,110.65
2019-01-20T21:56:34.058Z,89.60
2019-01-20T21:59:03.015Z,88.33
2019-01-20T22:01:31.954Z,73.75
2019-01-20T22:04:00.893Z,93.30
2019-01-20T22:06:31.838Z,87.88
2019-01-20T22:09:00.791Z,80.42
2019-01-20T22:11:29.667Z,85.85
2019-01-20T22:13:58.661Z,82.15
2019-01-20T22:16:27.666Z,91.10
2019-01-20T22:18:57.130Z,76.77
2019-01-20T22:21:26.137Z,80.95
2019-01-20T22:23:55.185Z,96.92
2019-01-20T22:26:24.161Z,75.40
2019-01-20T22:28:53.175Z,85.15
2019-01-20T22:31:22.070Z,75.92
2019-01-20T22:33:50.981Z,81.32
2019-01-20T22:36:19.861Z,79.00
2019-01-20T22:38:48.919Z,78.87
2019-01-20T22:41:17.955Z,84.32
2019-01-20T22:43:46.908Z,76.62
2019-01-20T22:46:15.962Z,79.70
2019-01-20T22:48:44.888Z,77.30
2019-01-20T22:51:13.906Z,85.45
2019-01-20T22:53:42.825Z,96.57
2019-01-20T22:56:11.837Z,82.65
2019-01-20T22:58:40.754Z,96.82
2019-01-20T23:01:18.619Z,83.22
2019-01-20T23:03:47.496Z,92.65
2019-01-20T23:06:16.342Z,73.92
2019-01-20T23:08:45.300Z,79.25
2019-01-20T23:11:14.334Z,79.37
2019-01-20T23:13:45.395Z,86.12
2019-01-20T23:16:14.434Z,76.45
2019-01-20T23:18:43.386Z,81.42
2019-01-20T23:21:12.391Z,78.35
2019-01-20T23:23:41.351Z,73.28
2019-01-20T23:26:10.361Z,78.55
2019-01-20T23:28:39.252Z,80.97
2019-01-20T23:31:10.330Z,81.08
2019-01-20T23:33:39.315Z,86.78
2019-01-20T23:36:08.431Z,94.35
2019-01-20T23:38:37.549Z,76.22
2019-01-20T23:41:06.550Z,85.25
2019-01-20T23:43:35.565Z,89.85
2019-01-20T23:46:04.577Z,76.77
2019-01-20T23:48:33.522Z,83.67
2019-01-20T23:51:02.444Z,82.27
2019-01-20T23:53:31.402Z,76.05
2019-01-20T23:56:00.377Z,71.72
2019-01-20T23:58:29.331Z,82.75
